Home   Weather   Germany   Seelze   Past weeks
Flag for Germany

Past Weather in Seelze, Lower Saxony, Germany — Yesterday and Last 2 Weeks

Currently: 27 °F. Clear. (Weather station: Hannover, Germany). See more current weather

Past Weather in Seelze — Graph

°F

Seelze Temperature Yesterday

Maximum temperature yesterday: 39 °F (at 3:50 pm)
Minimum temperature yesterday: 25 °F (at 10:50 pm)
Average temperature yesterday: 33 °F

High & Low Weather Summary for the Past Weeks

 TemperatureHumidityPressure
High48 °F (Feb 3, 5:50 am)100% (Jan 24, 12:20 am)30.77 "Hg (Jan 24, 12:20 am)
Low25 °F (Feb 6, 10:50 pm)36% (Feb 7, 2:20 pm)29.77 "Hg (Jan 30, 6:20 am)
Average36 °F84%30.33 "Hg
* Reported Jan 23 10:20 pm — Feb 7 10:20 pm, Seelze. Weather by CustomWeather, © 2023

Note: Actual official high and low records may vary slightly from our data, if they occured in-between our weather recording intervals... More about our weather records

Seelze Weather History for the Previous 24 Hours

Scroll right to see more
 ConditionsComfort  
Time TempWeatherWind HumidityBarometerVisibility
10:20 pm
Tue, Feb 7
27 °FClear.3 mph86%30.72 "Hg10 mi
9:20 pm28 °FPassing clouds.3 mph80%30.72 "HgN/A
8:50 pm30 °FClear.3 mph75%30.72 "Hg10 mi
8:20 pm30 °FClear.3 mph75%30.74 "Hg10 mi
7:50 pm28 °FClear.5 mph80%30.72 "Hg10 mi
7:20 pm30 °FClear.5 mph75%30.72 "Hg10 mi
6:50 pm30 °FClear.5 mph75%30.72 "Hg10 mi
6:20 pm32 °FClear.1 mph69%30.72 "Hg10 mi
5:50 pm34 °FPassing clouds.3 mph65%30.72 "HgN/A
5:20 pm36 °FClear.5 mph60%30.72 "Hg10 mi
4:50 pm37 °FSunny.2 mph56%30.72 "Hg10 mi
4:20 pm39 °FPassing clouds.6 mph52%30.72 "HgN/A
3:50 pm39 °FPassing clouds.5 mph48%30.72 "HgN/A
3:20 pm41 °FSunny.6 mph39%30.72 "Hg10 mi
2:50 pm41 °FPassing clouds.5 mph42%30.72 "HgN/A
2:20 pm41 °FPassing clouds.3 mph36%30.72 "HgN/A
1:50 pm39 °FPassing clouds.5 mph45%30.74 "HgN/A
1:20 pm37 °FPassing clouds.5 mph52%30.74 "HgN/A
12:50 pm37 °FPassing clouds.5 mph56%30.74 "HgN/A
12:20 pm37 °FPassing clouds.5 mph56%30.74 "HgN/A
11:50 am36 °FPassing clouds.5 mph65%30.74 "HgN/A
11:20 am34 °FPassing clouds.5 mph70%30.74 "HgN/A
10:50 am34 °FPassing clouds.5 mph75%30.74 "HgN/A
10:20 am32 °FPassing clouds.3 mph75%30.74 "HgN/A
9:50 am30 °FPassing clouds.6 mph80%30.74 "HgN/A
9:20 am28 °FChilly.2 mph86%30.74 "Hg6 mi
8:50 am25 °FCold.2 mph93%30.74 "Hg5 mi
8:20 am25 °FCold.2 mph93%30.74 "Hg4 mi
7:50 am25 °FCold.2 mph93%30.74 "Hg5 mi
6:50 am25 °FCold.3 mph93%30.74 "Hg6 mi
6:20 am25 °FCold.3 mph93%30.74 "Hg4 mi
5:50 am25 °FCold.3 mph93%30.74 "Hg4 mi
5:20 am25 °FIce fog.3 mph100%30.74 "Hg3 mi
4:50 am25 °FCold.3 mph100%30.74 "Hg4 mi
4:20 am25 °FClear.3 mph93%30.74 "Hg10 mi
3:50 am25 °FClear.5 mph93%30.74 "Hg10 mi
3:20 am28 °FPassing clouds.3 mph86%30.74 "HgN/A
2:50 am28 °FPassing clouds.6 mph86%30.74 "HgN/A
2:20 am27 °FClear.6 mph93%30.74 "Hg10 mi
1:50 am25 °FClear.7 mph93%30.74 "Hg10 mi
12:20 am27 °FClear.3 mph93%30.77 "Hg10 mi
11:50 pm
Mon, Feb 6
27 °FClear.3 mph93%30.77 "Hg10 mi
11:20 pm27 °FClear.3 mph93%30.74 "Hg10 mi
Weather by CustomWeather, © 2023

See weather overview